createdAt,value
2017-02-05T00:00:40.843Z,94.84
2017-02-05T00:01:54.420Z,94.74
2017-02-05T00:03:07.865Z,94.84
2017-02-05T00:04:21.495Z,94.98
2017-02-05T00:05:34.957Z,94.46
2017-02-05T00:06:48.885Z,95.17
2017-02-05T00:08:02.371Z,95.17
2017-02-05T00:09:15.921Z,95.65
2017-02-05T00:10:31.716Z,94.93
2017-02-05T00:11:46.006Z,95.08
2017-02-05T00:12:59.850Z,95.08
2017-02-05T00:14:13.288Z,94.98
2017-02-05T00:15:27.251Z,95.03
2017-02-05T00:16:40.797Z,94.74
2017-02-05T00:17:54.400Z,95.03
2017-02-05T00:19:08.163Z,94.27
2017-02-05T00:20:21.700Z,94.27
2017-02-05T00:21:35.579Z,94.65
2017-02-05T00:22:49.130Z,94.74
2017-02-05T00:24:02.994Z,93.8
2017-02-05T00:25:17.070Z,93.7
2017-02-05T00:26:30.515Z,93.7
2017-02-05T00:27:44.128Z,93.23
2017-02-05T00:28:57.974Z,93.23
2017-02-05T00:30:11.544Z,93.23
2017-02-05T00:31:25.279Z,93.32
2017-02-05T00:32:39.423Z,93.23
2017-02-05T00:33:53.321Z,92.85
2017-02-05T00:35:06.865Z,92.66
2017-02-05T00:36:20.690Z,92.66
2017-02-05T00:37:34.601Z,92.66
2017-02-05T00:38:48.010Z,92.85
2017-02-05T00:40:01.962Z,92.75
2017-02-05T00:41:15.836Z,92.28
2017-02-05T00:42:29.324Z,91.42
2017-02-05T00:43:43.083Z,91.99
2017-02-05T00:44:56.611Z,91.24
2017-02-05T00:46:10.451Z,91.24
2017-02-05T00:47:23.982Z,91.71
2017-02-05T00:48:37.524Z,91.42
2017-02-05T00:49:51.373Z,91.42
2017-02-05T00:51:04.797Z,91.24
2017-02-05T00:52:18.750Z,90.76
2017-02-05T00:53:32.215Z,90.38
2017-02-05T00:54:45.808Z,90
2017-02-05T00:55:59.620Z,89.81
2017-02-05T00:57:13.341Z,90.28
2017-02-05T00:58:26.735Z,90.28
2017-02-05T00:59:40.382Z,89.9
2017-02-05T01:00:53.830Z,90
2017-02-05T01:02:08.068Z,89.62
2017-02-05T01:03:21.650Z,89.43
2017-02-05T01:04:35.304Z,89.72
2017-02-05T01:05:49.212Z,89.9
2017-02-05T01:07:02.737Z,90.76
2017-02-05T01:08:16.463Z,90.47
2017-02-05T01:09:30.066Z,90.09
2017-02-05T01:10:43.618Z,90.19
2017-02-05T01:11:57.325Z,90.09
2017-02-05T01:13:11.152Z,89.43
2017-02-05T01:14:25.133Z,89.47
2017-02-05T01:15:38.623Z,89.33
2017-02-05T01:16:52.597Z,89.38
2017-02-05T01:18:06.023Z,88.48
2017-02-05T01:19:19.632Z,88.86
2017-02-05T01:20:33.795Z,89.05
2017-02-05T01:21:47.348Z,88.76
2017-02-05T01:23:01.187Z,88.76
2017-02-05T01:24:14.734Z,88.2
2017-02-05T01:25:28.211Z,88.29
2017-02-05T01:26:44.710Z,87.82
2017-02-05T01:27:58.201Z,87.24
2017-02-05T01:29:11.784Z,87.72
2017-02-05T01:30:25.323Z,87.76
2017-02-05T01:31:38.851Z,87.72
2017-02-05T01:32:52.823Z,87.62
2017-02-05T01:34:06.381Z,87.53
2017-02-05T01:35:19.875Z,87.72
2017-02-05T01:36:33.458Z,87.43
2017-02-05T01:37:47.259Z,87.34
2017-02-05T01:39:01.048Z,87.34
2017-02-05T01:40:14.872Z,87.34
2017-02-05T01:41:28.440Z,88.1
2017-02-05T01:42:41.870Z,88.29
2017-02-05T01:43:56.263Z,88.1
2017-02-05T01:45:10.815Z,88.1
2017-02-05T01:46:24.501Z,88.1
2017-02-05T01:47:37.929Z,87.91
2017-02-05T01:48:51.434Z,88.29
2017-02-05T01:50:04.843Z,88.01
2017-02-05T01:51:18.669Z,88.01
2017-02-05T01:52:32.512Z,88.29
2017-02-05T01:53:46.126Z,88.29
2017-02-05T01:54:59.551Z,88.76
2017-02-05T01:56:13.472Z,88.2
2017-02-05T01:57:27.331Z,88.29
2017-02-05T01:58:42.121Z,87.72
2017-02-05T01:59:55.526Z,87.91
2017-02-05T02:01:09.096Z,87.24
2017-02-05T02:02:22.984Z,87.43
2017-02-05T02:03:37.186Z,87.62
2017-02-05T02:04:50.619Z,87.72
2017-02-05T02:06:04.691Z,87.72
2017-02-05T02:07:18.128Z,88.1
2017-02-05T02:08:31.705Z,87.82
2017-02-05T02:09:45.456Z,87.91
2017-02-05T02:10:59.414Z,88.2
2017-02-05T02:12:13.243Z,88.95
2017-02-05T02:13:26.830Z,88.95
2017-02-05T02:14:40.268Z,89.05
2017-02-05T02:15:54.504Z,88.48
2017-02-05T02:17:07.927Z,88.48
2017-02-05T02:18:21.475Z,88.76
2017-02-05T02:19:35.336Z,88.95
2017-02-05T02:20:48.877Z,89.14
2017-02-05T02:22:03.414Z,88.57
2017-02-05T02:23:17.018Z,88.67
2017-02-05T02:24:30.495Z,88.86
2017-02-05T02:25:44.036Z,88.86
2017-02-05T02:26:57.979Z,88.39
2017-02-05T02:28:11.789Z,88.86
2017-02-05T02:29:25.345Z,88.76
2017-02-05T02:30:39.302Z,88.86
2017-02-05T02:31:52.715Z,88.67
2017-02-05T02:33:06.559Z,88.86
2017-02-05T02:34:20.338Z,88.76
2017-02-05T02:35:33.906Z,88.57
2017-02-05T02:36:47.331Z,88.76
2017-02-05T02:38:00.855Z,89.14
2017-02-05T02:39:14.293Z,89.14
2017-02-05T02:40:28.480Z,89.24
2017-02-05T02:41:42.332Z,88.95
2017-02-05T02:42:58.011Z,89.14
2017-02-05T02:44:11.865Z,88.95
2017-02-05T02:45:25.409Z,90.05
2017-02-05T02:46:39.157Z,89.81
2017-02-05T02:47:52.874Z,89.9
2017-02-05T02:49:06.277Z,89.9
2017-02-05T02:50:20.029Z,89.86
2017-02-05T02:51:33.554Z,90.24
2017-02-05T02:52:47.375Z,90.85
2017-02-05T02:54:00.848Z,90.76
2017-02-05T02:55:14.866Z,91.14
2017-02-05T02:56:28.744Z,91
2017-02-05T02:57:42.709Z,91.14
2017-02-05T02:58:56.438Z,91.14
2017-02-05T03:00:10.391Z,91.52
2017-02-05T03:01:24.436Z,91.28
2017-02-05T03:02:38.399Z,91.24
2017-02-05T03:03:51.864Z,90.95
2017-02-05T03:05:06.106Z,91.14
2017-02-05T03:06:19.576Z,90.95
2017-02-05T03:07:33.201Z,90.76
2017-02-05T03:08:47.046Z,90.85
2017-02-05T03:10:00.987Z,90.76
2017-02-05T03:11:14.704Z,91.14
2017-02-05T03:12:28.710Z,90.66
2017-02-05T03:13:42.141Z,91.04
2017-02-05T03:14:56.083Z,90.95
2017-02-05T03:16:09.694Z,90.85
2017-02-05T03:17:23.573Z,90.76
2017-02-05T03:18:36.981Z,90.76
2017-02-05T03:19:50.510Z,91.47
2017-02-05T03:21:03.931Z,91.56
2017-02-05T03:22:17.549Z,91.09
2017-02-05T03:23:31.718Z,90.9
2017-02-05T03:24:45.456Z,91.28
2017-02-05T03:25:58.899Z,91.66
2017-02-05T03:27:12.469Z,91.19
2017-02-05T03:28:25.959Z,91.04
2017-02-05T03:29:39.788Z,90.9
2017-02-05T03:30:53.259Z,91.19
2017-02-05T03:32:06.952Z,91.14
2017-02-05T03:33:20.895Z,91.47
2017-02-05T03:34:34.435Z,91.28
2017-02-05T03:35:48.566Z,91.38
2017-02-05T03:37:02.078Z,91.38
2017-02-05T03:38:15.507Z,91.75
2017-02-05T03:39:29.084Z,91.66
2017-02-05T03:40:42.977Z,91.19
2017-02-05T03:41:57.202Z,91
2017-02-05T03:43:10.638Z,91.28
2017-02-05T03:44:24.278Z,91.28
2017-02-05T03:45:37.804Z,90.71
2017-02-05T03:46:51.422Z,91.04
2017-02-05T03:48:05.185Z,91.33
2017-02-05T03:49:19.214Z,91.71
2017-02-05T03:50:32.610Z,91.42
2017-02-05T03:51:46.585Z,91.33
2017-02-05T03:53:00.429Z,92.04
2017-02-05T03:54:14.356Z,91.71
2017-02-05T03:55:28.253Z,91.52
2017-02-05T03:56:42.463Z,91.71
2017-02-05T03:57:56.294Z,91.52
2017-02-05T03:59:13.904Z,91.52
2017-02-05T04:00:27.723Z,91.14
2017-02-05T04:01:41.326Z,90.66
2017-02-05T04:02:54.784Z,90.66
2017-02-05T04:04:08.714Z,90.95
2017-02-05T04:05:22.203Z,90.57
2017-02-05T04:06:36.033Z,90.09
2017-02-05T04:07:49.466Z,90.57
2017-02-05T04:09:03.967Z,90.76
2017-02-05T04:10:17.431Z,90.76
2017-02-05T04:11:30.930Z,90.57
2017-02-05T04:12:44.645Z,90.38
2017-02-05T04:13:58.207Z,90.47
2017-02-05T04:15:12.015Z,90.85
2017-02-05T04:16:25.603Z,91.14
2017-02-05T04:17:39.101Z,91.71
2017-02-05T04:18:53.118Z,91.42
2017-02-05T04:20:06.537Z,91.04
2017-02-05T04:21:20.152Z,91.33
2017-02-05T04:22:34.744Z,91.24
2017-02-05T04:23:48.257Z,90.85
2017-02-05T04:25:01.994Z,91.42
2017-02-05T04:26:16.002Z,91.14
2017-02-05T04:27:29.420Z,90.76
2017-02-05T04:28:43.044Z,90.76
2017-02-05T04:29:56.463Z,90.47
2017-02-05T04:31:10.265Z,90.66
2017-02-05T04:32:24.183Z,90
2017-02-05T04:33:38.538Z,90.09
2017-02-05T04:34:52.078Z,90
2017-02-05T04:36:05.678Z,90.28
2017-02-05T04:37:19.434Z,89.81
2017-02-05T04:38:33.847Z,90
2017-02-05T04:39:47.261Z,90.38
2017-02-05T04:41:01.587Z,89.9
2017-02-05T04:42:15.062Z,89.62
2017-02-05T04:43:29.340Z,89.53
2017-02-05T04:44:42.713Z,90.09
2017-02-05T04:45:56.229Z,89.9
2017-02-05T04:47:09.653Z,90.47
2017-02-05T04:48:23.651Z,90
2017-02-05T04:49:37.330Z,89.62
2017-02-05T04:50:54.204Z,89.81
2017-02-05T04:52:17.491Z,89.24
2017-02-05T04:53:35.265Z,89.43
2017-02-05T04:54:49.242Z,88.95
2017-02-05T04:56:03.180Z,89.62
2017-02-05T04:57:16.828Z,89.05
2017-02-05T04:58:31.643Z,89.14
2017-02-05T04:59:45.051Z,89.14
2017-02-05T05:00:59.033Z,88.95
2017-02-05T05:02:17.024Z,88.86
2017-02-05T05:03:30.527Z,88.67
2017-02-05T05:04:44.155Z,88.39
2017-02-05T05:06:01.973Z,89.39
2017-02-05T05:07:21.333Z,89.29
2017-02-05T05:08:35.745Z,88.53
2017-02-05T05:09:49.815Z,88.53
2017-02-05T05:11:03.394Z,89.39
2017-02-05T05:12:16.881Z,89.2
2017-02-05T05:13:30.826Z,88.72
2017-02-05T05:14:44.688Z,88.53
2017-02-05T05:16:00.399Z,88.72
2017-02-05T05:17:13.829Z,88.91
2017-02-05T05:18:27.448Z,88.81
2017-02-05T05:19:41.732Z,89.1
2017-02-05T05:20:55.643Z,88.81
2017-02-05T05:22:09.056Z,89.39
2017-02-05T05:23:22.705Z,89.39
2017-02-05T05:24:36.116Z,88.81
2017-02-05T05:25:49.919Z,88.72
2017-02-05T05:27:03.633Z,88.81
2017-02-05T05:28:17.336Z,89
2017-02-05T05:29:31.214Z,89
2017-02-05T05:30:46.943Z,88.91
2017-02-05T05:32:01.533Z,88.91
2017-02-05T05:33:16.275Z,89.1
2017-02-05T05:34:29.830Z,88.53
2017-02-05T05:35:43.343Z,89
2017-02-05T05:37:12.068Z,89.1
2017-02-05T05:38:28.153Z,88.72
2017-02-05T05:39:45.883Z,88.43
2017-02-05T05:41:02.735Z,89
2017-02-05T05:42:16.609Z,88.72
2017-02-05T05:43:50.064Z,88.48
2017-02-05T05:45:03.937Z,88.68
2017-02-05T05:46:18.136Z,88.96
2017-02-05T05:47:32.079Z,88.68
2017-02-05T05:48:45.778Z,88.96
2017-02-05T05:49:59.660Z,88.77
2017-02-05T05:54:10.015Z,88.87
2017-02-05T05:55:23.431Z,88.68
2017-02-05T05:56:38.986Z,89.06
2017-02-05T05:57:54.836Z,89.06
2017-02-05T05:59:24.415Z,88.58
2017-02-05T06:00:40.151Z,89.25
2017-02-05T06:01:53.634Z,89.15
2017-02-05T06:03:07.193Z,89.34
2017-02-05T06:04:20.592Z,89.15
2017-02-05T06:05:34.400Z,89.06
2017-02-05T06:06:47.832Z,89.81
2017-02-05T06:08:01.431Z,89.15
2017-02-05T06:09:14.840Z,88.68
2017-02-05T06:10:28.817Z,88.58
2017-02-05T06:11:42.688Z,89.15
2017-02-05T06:12:56.310Z,88.68
2017-02-05T06:14:10.141Z,89.06
2017-02-05T06:15:24.490Z,88.96
2017-02-05T06:16:37.879Z,88.68
2017-02-05T06:17:51.394Z,89.06
2017-02-05T06:19:04.776Z,88.58
2017-02-05T06:20:18.421Z,88.48
2017-02-05T06:21:32.392Z,88.68
2017-02-05T06:22:46.318Z,88.87
2017-02-05T06:24:00.182Z,89.25
2017-02-05T06:25:14.191Z,89.15
2017-02-05T06:26:27.651Z,89.01
2017-02-05T06:27:42.074Z,88.73
2017-02-05T06:28:55.900Z,88.73
2017-02-05T06:30:09.550Z,88.63
2017-02-05T06:31:23.000Z,89.01
2017-02-05T06:32:38.061Z,88.82
2017-02-05T06:33:51.445Z,89.01
2017-02-05T06:35:07.141Z,88.92
2017-02-05T06:36:21.612Z,88.73
2017-02-05T06:37:35.165Z,89.2
2017-02-05T06:38:48.659Z,89.29
2017-02-05T06:40:02.229Z,89.58
2017-02-05T06:41:15.668Z,88.82
2017-02-05T06:42:29.266Z,89.39
2017-02-05T06:43:43.123Z,89.11
2017-02-05T06:44:56.616Z,89.58
2017-02-05T06:46:10.204Z,88.92
2017-02-05T06:47:24.299Z,89.48
2017-02-05T06:48:37.721Z,89.48
2017-02-05T06:49:51.269Z,88.73
2017-02-05T06:51:05.116Z,89.48
2017-02-05T06:52:20.368Z,89.48
2017-02-05T06:53:33.799Z,89.01
2017-02-05T06:54:47.319Z,89.2
2017-02-05T06:56:01.572Z,89.2
2017-02-05T06:57:15.723Z,89.77
2017-02-05T06:58:29.172Z,89.11
2017-02-05T06:59:42.913Z,89.01
2017-02-05T07:00:56.431Z,88.63
2017-02-05T07:02:10.396Z,88.92
2017-02-05T07:03:23.931Z,89.2
2017-02-05T07:04:37.528Z,88.82
2017-02-05T07:05:50.989Z,89.01
2017-02-05T07:07:04.553Z,88.82
2017-02-05T07:08:18.041Z,89.01
2017-02-05T07:09:31.824Z,88.82
2017-02-05T07:10:45.265Z,89.11
2017-02-05T07:11:58.966Z,89.11
2017-02-05T07:13:12.381Z,89.48
2017-02-05T07:14:26.381Z,89.2
2017-02-05T07:15:40.199Z,89.2
2017-02-05T07:16:54.148Z,89.58
2017-02-05T07:18:07.572Z,89.29
2017-02-05T07:19:21.379Z,89.06
2017-02-05T07:20:34.823Z,89.96
2017-02-05T07:21:48.392Z,88.96
2017-02-05T07:23:02.237Z,88.68
2017-02-05T07:24:15.838Z,89.15
2017-02-05T07:25:29.266Z,88.87
2017-02-05T07:26:43.004Z,88.58
2017-02-05T07:27:56.846Z,88.96
2017-02-05T07:29:10.498Z,88.48
2017-02-05T07:30:24.501Z,88.01
2017-02-05T07:31:38.058Z,87.45
2017-02-05T07:32:51.687Z,87.35
2017-02-05T07:34:05.240Z,88.1
2017-02-05T07:35:18.756Z,87.82
2017-02-05T07:36:32.291Z,88.29
2017-02-05T07:37:45.752Z,88.01
2017-02-05T07:38:59.369Z,87.63
2017-02-05T07:40:13.339Z,87.25
2017-02-05T07:41:27.742Z,86.78
2017-02-05T07:42:41.291Z,86.3
2017-02-05T07:43:54.905Z,86.02
2017-02-05T07:45:09.275Z,86.02
2017-02-05T07:46:22.847Z,85.55
2017-02-05T07:47:36.729Z,85.74
2017-02-05T07:48:50.751Z,86.11
2017-02-05T07:50:05.009Z,85.55
2017-02-05T07:51:20.766Z,85.74
2017-02-05T07:52:34.240Z,85.26
2017-02-05T07:53:47.900Z,85.45
2017-02-05T07:55:01.791Z,84.98
2017-02-05T07:56:15.856Z,85.26
2017-02-05T07:57:29.297Z,85.26
2017-02-05T07:58:43.683Z,84.88
2017-02-05T07:59:58.103Z,84.41
2017-02-05T08:01:11.723Z,84.59
2017-02-05T08:02:25.188Z,84.78
2017-02-05T08:03:39.181Z,84.78
2017-02-05T08:04:52.791Z,85.45
2017-02-05T08:06:06.365Z,85.55
2017-02-05T08:07:20.478Z,85.36
2017-02-05T08:08:34.215Z,85.93
2017-02-05T08:09:47.757Z,85.93
2017-02-05T08:11:02.674Z,85.93
2017-02-05T08:12:16.136Z,85.64
2017-02-05T08:13:30.315Z,86.11
2017-02-05T08:14:43.755Z,85.93
2017-02-05T08:15:58.111Z,85.36
2017-02-05T08:17:11.581Z,85.55
2017-02-05T08:18:25.569Z,85.64
2017-02-05T08:19:39.031Z,85.36
2017-02-05T08:20:53.123Z,85.26
2017-02-05T08:22:07.129Z,85.26
2017-02-05T08:23:21.089Z,85.3
2017-02-05T08:24:34.763Z,84.69
2017-02-05T08:25:50.480Z,84.45
2017-02-05T08:27:06.335Z,84.31
2017-02-05T08:28:22.209Z,84.45
2017-02-05T08:29:38.781Z,84.78
2017-02-05T08:30:52.424Z,84.92
2017-02-05T08:32:06.540Z,84.92
2017-02-05T08:33:20.159Z,84.92
2017-02-05T08:34:34.223Z,84.92
2017-02-05T08:35:47.698Z,84.92
2017-02-05T08:37:01.733Z,85.02
2017-02-05T08:38:15.649Z,85.49
2017-02-05T08:39:30.161Z,85.49
2017-02-05T08:40:44.530Z,84.92
2017-02-05T08:42:11.785Z,85.21
2017-02-05T08:43:25.533Z,85.02
2017-02-05T08:44:39.035Z,85.4
2017-02-05T08:45:52.818Z,85.3
2017-02-05T08:47:06.675Z,85.02
2017-02-05T08:48:21.805Z,85.3
2017-02-05T08:49:35.690Z,85.4
2017-02-05T08:50:49.772Z,84.49
2017-02-05T08:52:03.244Z,84.4
2017-02-05T08:53:17.723Z,84.59
2017-02-05T08:54:31.716Z,84.59
2017-02-05T08:55:46.419Z,84.68
2017-02-05T08:56:59.880Z,84.21
2017-02-05T08:58:13.434Z,83.83
2017-02-05T08:59:26.895Z,83.92
2017-02-05T09:00:53.533Z,83.64
2017-02-05T09:02:07.586Z,83.64
2017-02-05T09:03:21.317Z,83.07
2017-02-05T09:04:34.968Z,82.5
2017-02-05T09:05:48.983Z,82.88
2017-02-05T09:07:03.788Z,83.26
2017-02-05T09:08:19.912Z,83.26
2017-02-05T09:09:33.873Z,83.07
2017-02-05T09:10:48.299Z,83.26
2017-02-05T09:12:01.827Z,82.97
2017-02-05T09:13:34.960Z,82.82
2017-02-05T09:14:48.587Z,82.54
2017-02-05T09:16:02.033Z,82.73
2017-02-05T09:17:15.927Z,82.82
2017-02-05T09:18:29.393Z,83.3
2017-02-05T09:19:43.884Z,82.97
2017-02-05T09:20:58.099Z,82.82
2017-02-05T09:22:11.749Z,82.64
2017-02-05T09:23:25.987Z,82.64
2017-02-05T09:24:57.041Z,82.16
2017-02-05T09:26:11.045Z,82.54
2017-02-05T09:27:24.493Z,81.97
2017-02-05T09:28:38.090Z,81.78
2017-02-05T09:29:51.512Z,81.87
2017-02-05T09:31:05.082Z,81.78
2017-02-05T09:32:18.778Z,80.74
2017-02-05T09:33:32.379Z,80.74
2017-02-05T09:34:46.038Z,80.74
2017-02-05T09:35:59.729Z,80.74
2017-02-05T09:37:14.003Z,80.64
2017-02-05T09:38:28.379Z,80.07
2017-02-05T09:39:43.254Z,79.88
2017-02-05T09:40:56.949Z,79.63
2017-02-05T09:42:10.852Z,79.73
2017-02-05T09:43:24.450Z,79.73
2017-02-05T09:44:38.672Z,78.88
2017-02-05T09:45:52.345Z,78.3
2017-02-05T09:47:06.469Z,78.78
2017-02-05T09:48:20.304Z,78.97
2017-02-05T09:49:33.967Z,78.4
2017-02-05T09:50:48.969Z,78.21
2017-02-05T09:52:03.345Z,78.3
2017-02-05T09:53:17.350Z,77.92
2017-02-05T09:54:31.632Z,77.73
2017-02-05T09:55:45.750Z,77.3
2017-02-05T09:56:59.577Z,77.64
2017-02-05T09:58:13.663Z,78.21
2017-02-05T09:59:27.643Z,77.92
2017-02-05T10:00:51.142Z,77.73
2017-02-05T10:02:26.895Z,76.88
2017-02-05T10:03:41.703Z,76.54
2017-02-05T10:04:55.316Z,76.54
2017-02-05T10:06:09.055Z,76.35
2017-02-05T10:07:23.643Z,76.35
2017-02-05T10:08:38.590Z,77.64
2017-02-05T10:09:53.088Z,77.17
2017-02-05T10:11:07.123Z,76.06
2017-02-05T10:12:20.786Z,76.16
2017-02-05T10:13:34.788Z,76.21
2017-02-05T10:14:49.099Z,76.25
2017-02-05T10:16:04.267Z,76.88
2017-02-05T10:17:18.434Z,76.92
2017-02-05T10:18:32.553Z,76.63
2017-02-05T10:19:46.372Z,76.92
2017-02-05T10:21:00.079Z,76.92
2017-02-05T10:22:14.779Z,76.78
2017-02-05T10:23:28.703Z,76.78
2017-02-05T10:24:42.507Z,77.26
2017-02-05T10:25:59.195Z,77.73
2017-02-05T10:27:13.358Z,77.92
2017-02-05T10:28:27.459Z,77.83
2017-02-05T10:29:40.894Z,78.11
2017-02-05T10:30:54.540Z,78.3
2017-02-05T10:32:08.000Z,77.64
2017-02-05T10:33:22.399Z,77.83
2017-02-05T10:34:36.588Z,77.45
2017-02-05T10:35:50.671Z,77.11
2017-02-05T10:37:04.395Z,77.01
2017-02-05T10:38:18.125Z,77.11
2017-02-05T10:39:31.632Z,77.39
2017-02-05T10:40:45.596Z,76.73
2017-02-05T10:41:59.172Z,77.01
2017-02-05T10:43:14.016Z,76.82
2017-02-05T10:44:27.721Z,77.01
2017-02-05T10:45:41.816Z,77.68
2017-02-05T10:46:57.598Z,77.11
2017-02-05T10:48:11.797Z,77.3
2017-02-05T10:49:25.647Z,78.69
2017-02-05T10:50:39.241Z,77.97
2017-02-05T10:51:52.895Z,78.25
2017-02-05T10:53:07.332Z,77.87
2017-02-05T10:54:21.180Z,77.39
2017-02-05T10:55:44.352Z,77.87
2017-02-05T10:56:58.512Z,78.59
2017-02-05T10:58:12.748Z,78.5
2017-02-05T10:59:27.055Z,77.83
2017-02-05T11:00:41.256Z,78.3
2017-02-05T11:01:54.923Z,78.16
2017-02-05T11:03:08.507Z,78.21
2017-02-05T11:04:22.628Z,78.02
2017-02-05T11:05:36.313Z,77.64
2017-02-05T11:06:51.016Z,77.55
2017-02-05T11:08:04.895Z,77.68
2017-02-05T11:09:19.126Z,77.58
2017-02-05T11:10:32.680Z,77.3
2017-02-05T11:11:46.675Z,77.58
2017-02-05T11:13:00.773Z,76.73
2017-02-05T11:14:15.286Z,77.01
2017-02-05T11:15:29.795Z,76.82
2017-02-05T11:16:43.629Z,77.77
2017-02-05T11:17:58.093Z,77.39
2017-02-05T11:19:11.946Z,77.2
2017-02-05T11:20:26.237Z,76.92
2017-02-05T11:21:40.489Z,76.44
2017-02-05T11:22:54.113Z,76.44
2017-02-05T11:24:08.250Z,76.35
2017-02-05T11:25:22.676Z,76.25
2017-02-05T11:26:36.587Z,75.49
2017-02-05T11:27:50.045Z,75.78
2017-02-05T11:29:03.676Z,75.72
2017-02-05T11:30:17.365Z,75.53
2017-02-05T11:31:31.022Z,75.05
2017-02-05T11:32:45.640Z,74.67
2017-02-05T11:33:59.354Z,74.2
2017-02-05T11:35:12.786Z,73.82
2017-02-05T11:36:26.794Z,73.91
2017-02-05T11:37:40.290Z,73.72
2017-02-05T11:38:54.454Z,74.01
2017-02-05T11:40:07.988Z,73.82
2017-02-05T11:41:21.646Z,73.72
2017-02-05T11:42:37.516Z,72.01
2017-02-05T11:43:52.262Z,70.68
2017-02-05T11:45:06.160Z,70.87
2017-02-05T11:46:19.668Z,70.3
2017-02-05T11:47:34.083Z,70.2
2017-02-05T11:48:47.551Z,69.92
2017-02-05T11:50:01.178Z,69.54
2017-02-05T11:51:15.329Z,69.54
2017-02-05T11:52:30.088Z,69.25
2017-02-05T11:53:43.553Z,69.15
2017-02-05T11:54:57.288Z,69.44
2017-02-05T11:56:11.393Z,69.15
2017-02-05T11:57:25.287Z,68.77
2017-02-05T11:58:40.369Z,68.4
2017-02-05T11:59:54.040Z,67.86
2017-02-05T12:01:07.490Z,66.72
2017-02-05T12:02:21.099Z,66.72
2017-02-05T12:03:35.315Z,66.81
2017-02-05T12:04:48.968Z,66.05
2017-02-05T12:06:02.815Z,65.86
2017-02-05T12:07:16.393Z,65.38
2017-02-05T12:08:30.255Z,65.58
2017-02-05T12:09:44.657Z,65.48
2017-02-05T12:10:58.335Z,66.33
2017-02-05T12:12:11.949Z,65.67
2017-02-05T12:13:25.383Z,65.38
2017-02-05T12:14:39.275Z,65.38
2017-02-05T12:15:54.099Z,65.67
2017-02-05T12:17:08.090Z,65.13
2017-02-05T12:18:22.454Z,64.94
2017-02-05T12:19:36.195Z,64.84
2017-02-05T12:20:50.499Z,64.47
2017-02-05T12:22:32.143Z,63.23
2017-02-05T12:23:46.698Z,62.94
2017-02-05T12:25:00.823Z,62.65
2017-02-05T12:26:14.502Z,62.81
2017-02-05T12:27:30.158Z,62.81
2017-02-05T12:28:44.200Z,61.38
2017-02-05T12:29:57.658Z,61.1
2017-02-05T12:31:11.471Z,62.34
2017-02-05T12:32:25.539Z,61.86
2017-02-05T12:33:39.128Z,62.56
2017-02-05T12:34:52.786Z,62.56
2017-02-05T12:36:06.772Z,62.34
2017-02-05T12:37:21.079Z,61.8
2017-02-05T12:38:35.168Z,62.37
2017-02-05T12:39:49.308Z,62.81
2017-02-05T12:41:03.801Z,63.04
2017-02-05T12:42:17.483Z,62.62
2017-02-05T12:43:31.175Z,62.75
2017-02-05T12:44:44.982Z,62.65
2017-02-05T12:45:59.476Z,62.65
2017-02-05T12:47:14.215Z,63.13
2017-02-05T12:48:28.024Z,62.65
2017-02-05T12:49:42.463Z,62.65
2017-02-05T12:50:57.651Z,62.37
2017-02-05T12:52:11.400Z,62.85
2017-02-05T12:53:25.024Z,62.75
2017-02-05T12:54:38.635Z,62.65
2017-02-05T12:55:52.502Z,62.56
2017-02-05T12:57:06.035Z,62.02
2017-02-05T12:58:20.671Z,61.93
2017-02-05T12:59:38.625Z,61.35
2017-02-05T13:00:52.678Z,62.49
2017-02-05T13:02:06.297Z,61.25
2017-02-05T13:03:20.829Z,61.54
2017-02-05T13:04:34.386Z,60.78
2017-02-05T13:05:47.893Z,60.78
2017-02-05T13:07:01.900Z,60.4
2017-02-05T13:08:15.418Z,60.21
2017-02-05T13:09:29.194Z,59.92
2017-02-05T13:10:42.707Z,59.06
2017-02-05T13:11:56.350Z,59.35
2017-02-05T13:13:09.877Z,59.16
2017-02-05T13:14:23.417Z,60.27
2017-02-05T13:15:37.438Z,60.27
2017-02-05T13:16:52.069Z,60.56
2017-02-05T13:18:05.547Z,60.21
2017-02-05T13:19:19.483Z,60.49
2017-02-05T13:20:33.352Z,60.59
2017-02-05T13:21:46.944Z,60.11
2017-02-05T13:23:00.635Z,59.83
2017-02-05T13:24:14.734Z,59.45
2017-02-05T13:25:28.466Z,59.26
2017-02-05T13:26:42.050Z,59.06
2017-02-05T13:27:55.476Z,58.97
2017-02-05T13:29:09.100Z,58.4
2017-02-05T13:30:23.035Z,58.78
2017-02-05T13:31:37.086Z,58.78
2017-02-05T13:32:50.611Z,59.16
2017-02-05T13:34:04.805Z,58.69
2017-02-05T13:35:19.618Z,58.21
2017-02-05T13:36:33.581Z,58.11
2017-02-05T13:37:47.037Z,58.11
2017-02-05T13:39:01.085Z,57.16
2017-02-05T13:40:15.399Z,57.35
2017-02-05T13:41:28.955Z,57.26
2017-02-05T13:42:42.858Z,57.16
2017-02-05T13:43:56.418Z,57.35
2017-02-05T13:45:10.019Z,57.35
2017-02-05T13:46:23.579Z,57.54
2017-02-05T13:47:37.503Z,57.64
2017-02-05T13:48:51.088Z,57.92
2017-02-05T13:50:04.797Z,57.92
2017-02-05T13:51:18.491Z,58.4
2017-02-05T13:52:32.161Z,57.92
2017-02-05T13:53:45.982Z,58.11
2017-02-05T13:55:00.051Z,57.45
2017-02-05T13:56:14.519Z,57.64
2017-02-05T13:57:28.486Z,57.64
2017-02-05T13:58:42.268Z,57.35
2017-02-05T13:59:55.790Z,56.4
2017-02-05T14:01:09.418Z,56.49
2017-02-05T14:02:23.376Z,56.59
2017-02-05T14:03:37.446Z,57.16
2017-02-05T14:04:52.190Z,57.07
2017-02-05T14:06:06.577Z,56.4
2017-02-05T14:07:20.067Z,56.21
2017-02-05T14:08:34.065Z,56.21
2017-02-05T14:09:47.909Z,56.3
2017-02-05T14:11:02.059Z,56.59
2017-02-05T14:12:16.022Z,56.21
2017-02-05T14:13:30.518Z,55.83
2017-02-05T14:14:44.205Z,56.3
2017-02-05T14:16:00.167Z,56.4
2017-02-05T14:17:13.831Z,56.59
2017-02-05T14:18:27.472Z,57.35
2017-02-05T14:19:40.979Z,56.78
2017-02-05T14:20:54.991Z,57.26
2017-02-05T14:22:08.975Z,57.54
2017-02-05T14:23:22.569Z,57.92
2017-02-05T14:24:36.069Z,57.54
2017-02-05T14:25:50.177Z,57.07
2017-02-05T14:27:03.823Z,57.07
2017-02-05T14:28:17.811Z,57.16
2017-02-05T14:29:31.708Z,57.26
2017-02-05T14:30:45.364Z,57.54
2017-02-05T14:31:59.458Z,58.08
2017-02-05T14:33:13.091Z,57.54
2017-02-05T14:34:26.955Z,57.16
2017-02-05T14:35:40.564Z,57.45
2017-02-05T14:36:54.138Z,56.87
2017-02-05T14:38:07.864Z,57.07
2017-02-05T14:39:21.467Z,57.23
2017-02-05T14:40:35.030Z,57.04
2017-02-05T14:41:48.606Z,56.85
2017-02-05T14:43:02.200Z,57.42
2017-02-05T14:44:15.699Z,57.32
2017-02-05T14:45:29.449Z,56.65
2017-02-05T14:46:43.452Z,56.85
2017-02-05T14:47:57.133Z,56.85
2017-02-05T14:49:10.654Z,56.94
2017-02-05T14:50:25.060Z,57.13
2017-02-05T14:51:39.168Z,57.42
2017-02-05T14:52:52.829Z,57.32
2017-02-05T14:54:07.148Z,57.23
2017-02-05T14:55:20.796Z,57.6
2017-02-05T14:56:34.239Z,58.28
2017-02-05T14:57:48.273Z,57.99
2017-02-05T14:59:02.188Z,58.08
2017-02-05T15:00:16.741Z,58.08
2017-02-05T15:01:30.203Z,58.56
2017-02-05T15:02:43.799Z,58.18
2017-02-05T15:03:57.313Z,58.18
2017-02-05T15:05:10.911Z,59.03
2017-02-05T15:06:24.663Z,59.7
2017-02-05T15:07:38.255Z,58.47
2017-02-05T15:08:52.131Z,58.84
2017-02-05T15:10:06.128Z,58.47
2017-02-05T15:11:19.599Z,58.56
2017-02-05T15:12:33.611Z,58.28
2017-02-05T15:13:47.319Z,58.75
2017-02-05T15:15:01.129Z,58.47
2017-02-05T15:16:15.488Z,58.37
2017-02-05T15:17:29.581Z,59.51
2017-02-05T15:18:43.060Z,58.75
2017-02-05T15:19:56.864Z,59.03
2017-02-05T15:21:10.365Z,58.94
2017-02-05T15:22:24.048Z,59.23
2017-02-05T15:23:38.146Z,59.32
2017-02-05T15:24:52.932Z,59.13
2017-02-05T15:26:07.012Z,59.32
2017-02-05T15:27:21.589Z,58.75
2017-02-05T15:28:35.952Z,59.32
2017-02-05T15:29:49.565Z,59.23
2017-02-05T15:31:03.127Z,59.03
2017-02-05T15:32:19.442Z,59.03
2017-02-05T15:33:33.788Z,59.23
2017-02-05T15:34:47.486Z,59.99
2017-02-05T15:36:01.143Z,59.51
2017-02-05T15:37:15.133Z,60.08
2017-02-05T15:38:29.077Z,59.99
2017-02-05T15:39:43.331Z,59.7
2017-02-05T15:40:57.766Z,59.7
2017-02-05T15:42:11.863Z,59.89
2017-02-05T15:43:25.422Z,60.37
2017-02-05T15:44:39.376Z,60.08
2017-02-05T15:45:52.821Z,60.27
2017-02-05T15:47:06.783Z,60.08
2017-02-05T15:48:20.302Z,59.99
2017-02-05T15:49:33.863Z,60.56
2017-02-05T15:50:47.772Z,60.46
2017-02-05T15:52:01.448Z,62.56
2017-02-05T15:53:15.343Z,63.6
2017-02-05T15:54:29.553Z,64.47
2017-02-05T15:55:43.953Z,65.23
2017-02-05T15:56:57.579Z,65.38
2017-02-05T15:58:11.958Z,65.38
2017-02-05T15:59:25.689Z,65.86
2017-02-05T16:00:39.118Z,65.67
2017-02-05T16:01:52.691Z,66.14
2017-02-05T16:03:06.233Z,66.33